Terminal Aerodrome Forecast
Issued by NWS

Current Version | Previous Version | Text Only | Print | Product List | Glossary On
Versions: 1 2 3 4 5 6 7 8 9 10 11 12 13 14
836
FTPA31 PHFO 290540
TAFHTO
TAF
PHTO 290540Z 2906/3006 24005KT P6SM VCSH SCT025 BKN060
     FM292100 09008KT P6SM SCT025 BKN060=

USA.gov is the U.S. government's official web portal to all federal, state and local government web resources and services.